sensor_id;sensor_type;location;lat;lon;timestamp;temperature;humidity
65072;DHT22;51663;52.310;17.016;2023-07-29T00:00:56;38.40;37.90
65072;DHT22;51663;52.310;17.016;2023-07-29T00:04:01;38.40;38.00
65072;DHT22;51663;52.310;17.016;2023-07-29T00:07:04;38.40;38.00
65072;DHT22;51663;52.310;17.016;2023-07-29T00:10:07;38.30;38.00
65072;DHT22;51663;52.310;17.016;2023-07-29T00:13:09;38.20;37.90
65072;DHT22;51663;52.310;17.016;2023-07-29T00:16:11;38.20;38.00
65072;DHT22;51663;52.310;17.016;2023-07-29T00:19:13;38.20;38.00
65072;DHT22;51663;52.310;17.016;2023-07-29T00:22:16;38.20;37.90
65072;DHT22;51663;52.310;17.016;2023-07-29T00:25:18;38.20;38.00
65072;DHT22;51663;52.310;17.016;2023-07-29T00:28:20;38.20;37.90
65072;DHT22;51663;52.310;17.016;2023-07-29T00:31:24;38.10;37.90
65072;DHT22;51663;52.310;17.016;2023-07-29T00:34:26;38.10;37.90
65072;DHT22;51663;52.310;17.016;2023-07-29T00:37:30;38.10;37.80
65072;DHT22;51663;52.310;17.016;2023-07-29T00:40:35;38.00;37.80
65072;DHT22;51663;52.310;17.016;2023-07-29T00:43:37;38.00;37.90
65072;DHT22;51663;52.310;17.016;2023-07-29T00:46:40;37.90;37.60
65072;DHT22;51663;52.310;17.016;2023-07-29T00:49:44;37.90;37.60
65072;DHT22;51663;52.310;17.016;2023-07-29T00:52:46;37.80;37.70
65072;DHT22;51663;52.310;17.016;2023-07-29T00:55:48;37.80;37.60
65072;DHT22;51663;52.310;17.016;2023-07-29T00:58:51;37.70;37.60
65072;DHT22;51663;52.310;17.016;2023-07-29T01:01:58;37.70;37.60
65072;DHT22;51663;52.310;17.016;2023-07-29T01:05:01;37.60;37.40
65072;DHT22;51663;52.310;17.016;2023-07-29T01:08:20;37.60;37.20
65072;DHT22;51663;52.310;17.016;2023-07-29T01:11:55;37.60;37.30
65072;DHT22;51663;52.310;17.016;2023-07-29T01:18:18;37.60;37.10
65072;DHT22;51663;52.310;17.016;2023-07-29T01:21:25;37.60;37.00
65072;DHT22;51663;52.310;17.016;2023-07-29T01:24:28;37.50;36.80
65072;DHT22;51663;52.310;17.016;2023-07-29T01:27:31;37.50;36.90
65072;DHT22;51663;52.310;17.016;2023-07-29T01:30:39;37.40;37.00
65072;DHT22;51663;52.310;17.016;2023-07-29T01:33:48;37.40;37.10
65072;DHT22;51663;52.310;17.016;2023-07-29T01:36:54;37.40;36.90
65072;DHT22;51663;52.310;17.016;2023-07-29T01:40:04;37.40;36.70
65072;DHT22;51663;52.310;17.016;2023-07-29T01:43:07;37.30;37.30
65072;DHT22;51663;52.310;17.016;2023-07-29T01:46:10;37.30;37.20
65072;DHT22;51663;52.310;17.016;2023-07-29T01:49:15;37.30;36.90
65072;DHT22;51663;52.310;17.016;2023-07-29T01:52:17;37.20;36.70
65072;DHT22;51663;52.310;17.016;2023-07-29T01:55:20;37.20;36.70
65072;DHT22;51663;52.310;17.016;2023-07-29T01:58:22;37.20;36.70
65072;DHT22;51663;52.310;17.016;2023-07-29T02:01:24;37.20;36.80
65072;DHT22;51663;52.310;17.016;2023-07-29T02:04:27;37.10;36.90
65072;DHT22;51663;52.310;17.016;2023-07-29T02:07:29;37.10;36.90
65072;DHT22;51663;52.310;17.016;2023-07-29T02:10:31;37.10;36.60
65072;DHT22;51663;52.310;17.016;2023-07-29T02:13:33;37.10;36.20
65072;DHT22;51663;52.310;17.016;2023-07-29T02:16:35;37.10;36.40
65072;DHT22;51663;52.310;17.016;2023-07-29T02:19:40;37.10;35.80
65072;DHT22;51663;52.310;17.016;2023-07-29T02:22:42;37.10;36.00
65072;DHT22;51663;52.310;17.016;2023-07-29T02:25:46;37.00;36.00
65072;DHT22;51663;52.310;17.016;2023-07-29T02:28:48;36.90;36.70
65072;DHT22;51663;52.310;17.016;2023-07-29T02:31:51;36.90;36.80
65072;DHT22;51663;52.310;17.016;2023-07-29T02:34:53;36.90;36.70
65072;DHT22;51663;52.310;17.016;2023-07-29T02:37:55;36.80;36.70
65072;DHT22;51663;52.310;17.016;2023-07-29T02:40:57;36.90;36.30
65072;DHT22;51663;52.310;17.016;2023-07-29T02:43:59;36.90;36.30
65072;DHT22;51663;52.310;17.016;2023-07-29T02:47:01;36.90;36.10
65072;DHT22;51663;52.310;17.016;2023-07-29T02:50:04;36.90;36.30
65072;DHT22;51663;52.310;17.016;2023-07-29T02:53:06;36.90;36.30
65072;DHT22;51663;52.310;17.016;2023-07-29T02:56:09;37.00;36.50
65072;DHT22;51663;52.310;17.016;2023-07-29T02:59:11;37.10;36.50
65072;DHT22;51663;52.310;17.016;2023-07-29T03:02:13;37.10;36.60
65072;DHT22;51663;52.310;17.016;2023-07-29T03:05:18;37.10;36.80
65072;DHT22;51663;52.310;17.016;2023-07-29T03:08:20;37.10;36.90
65072;DHT22;51663;52.310;17.016;2023-07-29T03:11:22;37.10;36.90
65072;DHT22;51663;52.310;17.016;2023-07-29T03:14:24;37.10;36.80
65072;DHT22;51663;52.310;17.016;2023-07-29T03:17:27;37.30;37.10
65072;DHT22;51663;52.310;17.016;2023-07-29T03:20:29;37.30;37.10
65072;DHT22;51663;52.310;17.016;2023-07-29T03:23:32;37.30;37.30
65072;DHT22;51663;52.310;17.016;2023-07-29T03:26:35;37.30;37.30
65072;DHT22;51663;52.310;17.016;2023-07-29T03:29:37;37.40;37.30
65072;DHT22;51663;52.310;17.016;2023-07-29T03:32:43;37.40;37.30
65072;DHT22;51663;52.310;17.016;2023-07-29T03:35:49;37.40;37.50
65072;DHT22;51663;52.310;17.016;2023-07-29T03:38:51;37.40;37.60
65072;DHT22;51663;52.310;17.016;2023-07-29T03:41:53;37.40;37.10
65072;DHT22;51663;52.310;17.016;2023-07-29T03:44:56;37.50;37.30
65072;DHT22;51663;52.310;17.016;2023-07-29T03:47:58;37.50;37.20
65072;DHT22;51663;52.310;17.016;2023-07-29T03:51:00;37.50;37.40
65072;DHT22;51663;52.310;17.016;2023-07-29T03:54:03;37.60;37.40
65072;DHT22;51663;52.310;17.016;2023-07-29T03:57:05;37.60;37.40
65072;DHT22;51663;52.310;17.016;2023-07-29T04:00:08;37.70;37.30
65072;DHT22;51663;52.310;17.016;2023-07-29T04:03:15;37.80;37.10
65072;DHT22;51663;52.310;17.016;2023-07-29T04:06:17;37.80;37.20
65072;DHT22;51663;52.310;17.016;2023-07-29T04:09:20;37.90;37.00
65072;DHT22;51663;52.310;17.016;2023-07-29T04:23:29;38.00;36.80
65072;DHT22;51663;52.310;17.016;2023-07-29T04:26:31;36.70;40.20
65072;DHT22;51663;52.310;17.016;2023-07-29T04:29:33;37.30;39.30
65072;DHT22;51663;52.310;17.016;2023-07-29T04:32:38;37.70;38.60
65072;DHT22;51663;52.310;17.016;2023-07-29T04:35:40;38.00;38.00
65072;DHT22;51663;52.310;17.016;2023-07-29T04:38:42;38.10;37.60
65072;DHT22;51663;52.310;17.016;2023-07-29T04:41:44;38.20;37.60
65072;DHT22;51663;52.310;17.016;2023-07-29T04:44:47;38.20;37.60
65072;DHT22;51663;52.310;17.016;2023-07-29T04:47:49;38.30;37.50
65072;DHT22;51663;52.310;17.016;2023-07-29T04:50:51;38.20;37.60
65072;DHT22;51663;52.310;17.016;2023-07-29T04:53:53;38.30;37.70
65072;DHT22;51663;52.310;17.016;2023-07-29T04:56:55;38.40;38.00
65072;DHT22;51663;52.310;17.016;2023-07-29T04:59:58;38.50;38.00
65072;DHT22;51663;52.310;17.016;2023-07-29T05:03:03;38.60;37.90
65072;DHT22;51663;52.310;17.016;2023-07-29T05:06:05;38.70;37.80
65072;DHT22;51663;52.310;17.016;2023-07-29T05:09:18;38.80;37.70
65072;DHT22;51663;52.310;17.016;2023-07-29T05:12:21;38.80;37.60
65072;DHT22;51663;52.310;17.016;2023-07-29T05:15:23;39.00;37.90
65072;DHT22;51663;52.310;17.016;2023-07-29T05:18:26;39.10;37.40
65072;DHT22;51663;52.310;17.016;2023-07-29T05:21:28;39.20;37.50
65072;DHT22;51663;52.310;17.016;2023-07-29T05:24:30;39.30;37.50
65072;DHT22;51663;52.310;17.016;2023-07-29T05:27:32;39.40;37.60
65072;DHT22;51663;52.310;17.016;2023-07-29T05:30:35;39.40;37.20
65072;DHT22;51663;52.310;17.016;2023-07-29T05:33:39;39.50;37.00
65072;DHT22;51663;52.310;17.016;2023-07-29T05:36:41;39.60;37.10
65072;DHT22;51663;52.310;17.016;2023-07-29T05:39:44;39.60;37.00
65072;DHT22;51663;52.310;17.016;2023-07-29T05:42:46;39.60;37.10
65072;DHT22;51663;52.310;17.016;2023-07-29T05:45:50;39.70;37.00
65072;DHT22;51663;52.310;17.016;2023-07-29T05:48:54;39.70;37.20
65072;DHT22;51663;52.310;17.016;2023-07-29T05:51:56;39.90;37.10
65072;DHT22;51663;52.310;17.016;2023-07-29T05:54:59;40.10;36.80
65072;DHT22;51663;52.310;17.016;2023-07-29T05:58:01;40.20;36.40
65072;DHT22;51663;52.310;17.016;2023-07-29T06:01:04;40.30;36.50
65072;DHT22;51663;52.310;17.016;2023-07-29T06:04:07;40.30;36.10
65072;DHT22;51663;52.310;17.016;2023-07-29T06:07:09;40.30;36.50
65072;DHT22;51663;52.310;17.016;2023-07-29T06:10:13;40.30;36.60
65072;DHT22;51663;52.310;17.016;2023-07-29T06:13:16;40.30;36.50
65072;DHT22;51663;52.310;17.016;2023-07-29T06:16:20;40.40;37.20
65072;DHT22;51663;52.310;17.016;2023-07-29T06:19:22;40.40;36.60
65072;DHT22;51663;52.310;17.016;2023-07-29T06:22:24;40.70;36.30
65072;DHT22;51663;52.310;17.016;2023-07-29T06:25:26;41.00;35.90
65072;DHT22;51663;52.310;17.016;2023-07-29T06:28:29;41.20;35.60
65072;DHT22;51663;52.310;17.016;2023-07-29T06:31:31;41.20;35.70
65072;DHT22;51663;52.310;17.016;2023-07-29T06:34:35;41.30;35.40
65072;DHT22;51663;52.310;17.016;2023-07-29T06:37:37;41.30;35.60
65072;DHT22;51663;52.310;17.016;2023-07-29T06:40:39;41.30;35.60
65072;DHT22;51663;52.310;17.016;2023-07-29T06:43:41;41.60;35.60
65072;DHT22;51663;52.310;17.016;2023-07-29T06:46:43;42.00;35.40
65072;DHT22;51663;52.310;17.016;2023-07-29T06:49:46;42.50;34.60
65072;DHT22;51663;52.310;17.016;2023-07-29T06:52:48;43.00;34.00
65072;DHT22;51663;52.310;17.016;2023-07-29T06:55:50;43.40;33.40
65072;DHT22;51663;52.310;17.016;2023-07-29T06:58:53;43.90;32.90
65072;DHT22;51663;52.310;17.016;2023-07-29T07:01:57;44.30;32.40
65072;DHT22;51663;52.310;17.016;2023-07-29T07:05:00;44.40;32.20
65072;DHT22;51663;52.310;17.016;2023-07-29T07:08:02;44.70;31.70
65072;DHT22;51663;52.310;17.016;2023-07-29T07:11:05;44.90;31.20
65072;DHT22;51663;52.310;17.016;2023-07-29T07:14:07;45.20;30.60
65072;DHT22;51663;52.310;17.016;2023-07-29T07:17:10;45.60;30.60
65072;DHT22;51663;52.310;17.016;2023-07-29T07:20:14;45.90;30.70
65072;DHT22;51663;52.310;17.016;2023-07-29T07:23:17;46.20;30.00
65072;DHT22;51663;52.310;17.016;2023-07-29T07:26:20;46.60;29.60
65072;DHT22;51663;52.310;17.016;2023-07-29T07:29:22;46.80;29.20
65072;DHT22;51663;52.310;17.016;2023-07-29T07:32:24;47.00;29.20
65072;DHT22;51663;52.310;17.016;2023-07-29T07:35:27;47.30;29.10
65072;DHT22;51663;52.310;17.016;2023-07-29T07:38:29;47.30;29.40
65072;DHT22;51663;52.310;17.016;2023-07-29T07:41:31;47.30;29.10
65072;DHT22;51663;52.310;17.016;2023-07-29T07:44:33;47.40;28.30
65072;DHT22;51663;52.310;17.016;2023-07-29T07:47:36;47.40;27.80
65072;DHT22;51663;52.310;17.016;2023-07-29T07:50:38;47.50;28.20
65072;DHT22;51663;52.310;17.016;2023-07-29T07:53:40;47.70;28.10
65072;DHT22;51663;52.310;17.016;2023-07-29T07:56:43;47.50;27.80
65072;DHT22;51663;52.310;17.016;2023-07-29T07:59:45;47.50;27.70
65072;DHT22;51663;52.310;17.016;2023-07-29T08:02:47;47.30;27.80
65072;DHT22;51663;52.310;17.016;2023-07-29T08:05:50;47.30;27.00
65072;DHT22;51663;52.310;17.016;2023-07-29T08:08:52;46.90;28.30
65072;DHT22;51663;52.310;17.016;2023-07-29T08:11:54;46.70;28.20
65072;DHT22;51663;52.310;17.016;2023-07-29T08:14:57;46.40;28.20
65072;DHT22;51663;52.310;17.016;2023-07-29T08:17:59;46.40;28.60
65072;DHT22;51663;52.310;17.016;2023-07-29T08:21:01;46.70;27.80
65072;DHT22;51663;52.310;17.016;2023-07-29T08:24:05;47.00;28.20
65072;DHT22;51663;52.310;17.016;2023-07-29T08:27:09;47.20;28.10
65072;DHT22;51663;52.310;17.016;2023-07-29T08:30:11;47.40;27.60
65072;DHT22;51663;52.310;17.016;2023-07-29T08:33:14;47.70;27.00
65072;DHT22;51663;52.310;17.016;2023-07-29T08:36:17;47.70;27.10
65072;DHT22;51663;52.310;17.016;2023-07-29T08:39:19;47.50;27.20
65072;DHT22;51663;52.310;17.016;2023-07-29T08:42:23;46.90;27.30
65072;DHT22;51663;52.310;17.016;2023-07-29T08:45:28;46.20;28.10
65072;DHT22;51663;52.310;17.016;2023-07-29T08:48:39;45.80;28.80
65072;DHT22;51663;52.310;17.016;2023-07-29T08:51:48;45.10;29.90
65072;DHT22;51663;52.310;17.016;2023-07-29T08:54:51;44.70;29.40
65072;DHT22;51663;52.310;17.016;2023-07-29T08:57:55;44.40;29.60
65072;DHT22;51663;52.310;17.016;2023-07-29T09:01:00;44.20;30.00
65072;DHT22;51663;52.310;17.016;2023-07-29T09:04:03;44.00;31.50
65072;DHT22;51663;52.310;17.016;2023-07-29T09:07:05;43.70;30.90
65072;DHT22;51663;52.310;17.016;2023-07-29T09:10:09;43.60;31.30
65072;DHT22;51663;52.310;17.016;2023-07-29T09:13:17;43.30;31.50
65072;DHT22;51663;52.310;17.016;2023-07-29T09:16:20;43.50;31.20
65072;DHT22;51663;52.310;17.016;2023-07-29T09:19:25;43.60;30.50
65072;DHT22;51663;52.310;17.016;2023-07-29T09:22:29;43.50;31.20
65072;DHT22;51663;52.310;17.016;2023-07-29T09:25:32;43.10;31.50
65072;DHT22;51663;52.310;17.016;2023-07-29T09:28:39;43.00;32.50
65072;DHT22;51663;52.310;17.016;2023-07-29T09:31:43;43.10;31.40
65072;DHT22;51663;52.310;17.016;2023-07-29T09:34:45;43.10;30.70
65072;DHT22;51663;52.310;17.016;2023-07-29T09:37:48;43.10;31.00
65072;DHT22;51663;52.310;17.016;2023-07-29T09:40:55;43.10;30.40
65072;DHT22;51663;52.310;17.016;2023-07-29T09:44:02;43.10;30.80
65072;DHT22;51663;52.310;17.016;2023-07-29T09:47:05;42.90;32.20
65072;DHT22;51663;52.310;17.016;2023-07-29T09:50:09;43.00;31.20
65072;DHT22;51663;52.310;17.016;2023-07-29T09:53:11;43.20;31.10
65072;DHT22;51663;52.310;17.016;2023-07-29T09:56:14;43.00;30.70
65072;DHT22;51663;52.310;17.016;2023-07-29T09:59:19;43.00;31.00
65072;DHT22;51663;52.310;17.016;2023-07-29T10:02:21;43.30;31.20
65072;DHT22;51663;52.310;17.016;2023-07-29T10:05:28;43.40;30.50
65072;DHT22;51663;52.310;17.016;2023-07-29T10:08:31;42.90;30.90
65072;DHT22;51663;52.310;17.016;2023-07-29T10:11:43;43.20;31.30
65072;DHT22;51663;52.310;17.016;2023-07-29T10:14:47;43.60;30.50
65072;DHT22;51663;52.310;17.016;2023-07-29T10:17:50;43.30;31.60
65072;DHT22;51663;52.310;17.016;2023-07-29T10:21:00;43.60;30.00
65072;DHT22;51663;52.310;17.016;2023-07-29T10:24:05;43.70;30.50
65072;DHT22;51663;52.310;17.016;2023-07-29T10:27:09;43.90;30.00
65072;DHT22;51663;52.310;17.016;2023-07-29T10:30:13;44.00;30.00
65072;DHT22;51663;52.310;17.016;2023-07-29T10:33:16;43.90;29.80
65072;DHT22;51663;52.310;17.016;2023-07-29T10:36:19;44.00;30.00
65072;DHT22;51663;52.310;17.016;2023-07-29T10:39:25;44.10;29.70
65072;DHT22;51663;52.310;17.016;2023-07-29T10:42:27;44.20;29.40
65072;DHT22;51663;52.310;17.016;2023-07-29T10:45:40;44.10;29.80
65072;DHT22;51663;52.310;17.016;2023-07-29T10:51:53;44.10;29.40
65072;DHT22;51663;52.310;17.016;2023-07-29T10:54:56;44.10;29.30
65072;DHT22;51663;52.310;17.016;2023-07-29T10:58:16;43.90;29.90
65072;DHT22;51663;52.310;17.016;2023-07-29T11:01:28;43.80;30.60
65072;DHT22;51663;52.310;17.016;2023-07-29T11:04:46;43.50;29.80
65072;DHT22;51663;52.310;17.016;2023-07-29T11:07:49;43.50;30.00
65072;DHT22;51663;52.310;17.016;2023-07-29T11:14:04;43.90;30.40
65072;DHT22;51663;52.310;17.016;2023-07-29T11:17:07;44.10;30.40
65072;DHT22;51663;52.310;17.016;2023-07-29T11:20:13;44.10;30.00
65072;DHT22;51663;52.310;17.016;2023-07-29T11:23:16;44.00;29.20
65072;DHT22;51663;52.310;17.016;2023-07-29T11:26:18;44.10;29.20
65072;DHT22;51663;52.310;17.016;2023-07-29T11:29:21;44.00;29.10
65072;DHT22;51663;52.310;17.016;2023-07-29T11:32:23;43.90;29.40
65072;DHT22;51663;52.310;17.016;2023-07-29T11:35:26;44.10;29.30
65072;DHT22;51663;52.310;17.016;2023-07-29T11:38:28;43.90;30.00
65072;DHT22;51663;52.310;17.016;2023-07-29T11:41:33;43.90;29.80
65072;DHT22;51663;52.310;17.016;2023-07-29T11:44:36;44.00;29.60
65072;DHT22;51663;52.310;17.016;2023-07-29T11:47:38;44.10;28.70
65072;DHT22;51663;52.310;17.016;2023-07-29T11:50:41;44.10;28.60
65072;DHT22;51663;52.310;17.016;2023-07-29T11:53:44;44.20;29.20
65072;DHT22;51663;52.310;17.016;2023-07-29T11:56:47;44.50;29.50
65072;DHT22;51663;52.310;17.016;2023-07-29T11:59:50;44.70;29.00
65072;DHT22;51663;52.310;17.016;2023-07-29T12:02:52;44.70;28.90
65072;DHT22;51663;52.310;17.016;2023-07-29T12:05:55;44.50;29.00
65072;DHT22;51663;52.310;17.016;2023-07-29T12:08:58;44.70;29.30
65072;DHT22;51663;52.310;17.016;2023-07-29T12:12:04;44.70;29.30
65072;DHT22;51663;52.310;17.016;2023-07-29T12:15:07;44.80;29.20
65072;DHT22;51663;52.310;17.016;2023-07-29T12:18:09;44.80;29.20
65072;DHT22;51663;52.310;17.016;2023-07-29T12:21:14;44.70;28.90
65072;DHT22;51663;52.310;17.016;2023-07-29T12:24:17;44.80;29.30
65072;DHT22;51663;52.310;17.016;2023-07-29T12:27:21;44.60;29.40
65072;DHT22;51663;52.310;17.016;2023-07-29T12:30:24;44.70;29.40
65072;DHT22;51663;52.310;17.016;2023-07-29T12:33:35;44.70;30.20
65072;DHT22;51663;52.310;17.016;2023-07-29T12:36:46;44.70;29.90
65072;DHT22;51663;52.310;17.016;2023-07-29T12:39:50;44.30;29.00
65072;DHT22;51663;52.310;17.016;2023-07-29T12:42:53;43.90;29.40
65072;DHT22;51663;52.310;17.016;2023-07-29T12:45:57;43.90;29.80
65072;DHT22;51663;52.310;17.016;2023-07-29T12:48:59;43.90;29.50
65072;DHT22;51663;52.310;17.016;2023-07-29T12:52:01;43.90;29.30
65072;DHT22;51663;52.310;17.016;2023-07-29T12:55:05;43.80;29.80
65072;DHT22;51663;52.310;17.016;2023-07-29T12:58:07;44.00;29.70
65072;DHT22;51663;52.310;17.016;2023-07-29T13:01:10;44.10;29.90
65072;DHT22;51663;52.310;17.016;2023-07-29T13:04:18;43.90;30.20
65072;DHT22;51663;52.310;17.016;2023-07-29T13:07:22;44.10;29.40
65072;DHT22;51663;52.310;17.016;2023-07-29T13:10:24;44.20;29.30
65072;DHT22;51663;52.310;17.016;2023-07-29T13:13:26;44.40;29.40
65072;DHT22;51663;52.310;17.016;2023-07-29T13:16:29;44.80;29.10
65072;DHT22;51663;52.310;17.016;2023-07-29T13:19:32;44.70;29.10
65072;DHT22;51663;52.310;17.016;2023-07-29T13:22:35;44.70;29.20
65072;DHT22;51663;52.310;17.016;2023-07-29T13:25:37;44.80;28.40
65072;DHT22;51663;52.310;17.016;2023-07-29T13:28:39;44.90;28.60
65072;DHT22;51663;52.310;17.016;2023-07-29T13:31:42;44.90;28.60
65072;DHT22;51663;52.310;17.016;2023-07-29T13:34:44;45.30;28.30
65072;DHT22;51663;52.310;17.016;2023-07-29T13:37:46;45.10;28.40
65072;DHT22;51663;52.310;17.016;2023-07-29T13:40:48;45.00;28.00
65072;DHT22;51663;52.310;17.016;2023-07-29T13:43:53;44.00;30.60
65072;DHT22;51663;52.310;17.016;2023-07-29T13:46:56;43.10;35.20
65072;DHT22;51663;52.310;17.016;2023-07-29T13:49:59;42.70;35.70
65072;DHT22;51663;52.310;17.016;2023-07-29T13:53:01;42.20;36.40
65072;DHT22;51663;52.310;17.016;2023-07-29T13:56:04;41.70;35.90
65072;DHT22;51663;52.310;17.016;2023-07-29T13:59:06;41.10;38.50
65072;DHT22;51663;52.310;17.016;2023-07-29T14:02:09;40.90;38.90
65072;DHT22;51663;52.310;17.016;2023-07-29T14:05:11;40.50;39.80
65072;DHT22;51663;52.310;17.016;2023-07-29T14:08:14;40.40;41.00
65072;DHT22;51663;52.310;17.016;2023-07-29T14:11:16;40.30;41.50
65072;DHT22;51663;52.310;17.016;2023-07-29T14:14:20;40.10;41.40
65072;DHT22;51663;52.310;17.016;2023-07-29T14:17:24;39.70;42.00
65072;DHT22;51663;52.310;17.016;2023-07-29T14:20:27;39.70;40.80
65072;DHT22;51663;52.310;17.016;2023-07-29T14:23:29;39.70;40.20
65072;DHT22;51663;52.310;17.016;2023-07-29T14:26:32;40.10;39.80
65072;DHT22;51663;52.310;17.016;2023-07-29T14:29:34;40.40;40.20
65072;DHT22;51663;52.310;17.016;2023-07-29T14:32:37;40.70;39.20
65072;DHT22;51663;52.310;17.016;2023-07-29T14:35:39;41.10;38.90
65072;DHT22;51663;52.310;17.016;2023-07-29T14:38:41;41.40;39.10
65072;DHT22;51663;52.310;17.016;2023-07-29T14:41:44;41.60;39.00
65072;DHT22;51663;52.310;17.016;2023-07-29T14:44:46;41.70;38.00
65072;DHT22;51663;52.310;17.016;2023-07-29T14:47:48;41.50;38.30
65072;DHT22;51663;52.310;17.016;2023-07-29T14:50:51;41.50;38.10
65072;DHT22;51663;52.310;17.016;2023-07-29T14:53:53;41.40;37.60
65072;DHT22;51663;52.310;17.016;2023-07-29T14:56:56;41.40;37.70
65072;DHT22;51663;52.310;17.016;2023-07-29T14:59:58;41.40;38.00
65072;DHT22;51663;52.310;17.016;2023-07-29T15:03:02;41.30;38.10
65072;DHT22;51663;52.310;17.016;2023-07-29T15:06:06;41.30;38.10
65072;DHT22;51663;52.310;17.016;2023-07-29T15:09:09;41.40;38.40
65072;DHT22;51663;52.310;17.016;2023-07-29T15:12:14;41.60;38.10
65072;DHT22;51663;52.310;17.016;2023-07-29T15:15:17;41.60;38.30
65072;DHT22;51663;52.310;17.016;2023-07-29T15:18:19;41.50;38.00
65072;DHT22;51663;52.310;17.016;2023-07-29T15:21:46;41.70;38.40
65072;DHT22;51663;52.310;17.016;2023-07-29T15:24:49;41.90;38.10
65072;DHT22;51663;52.310;17.016;2023-07-29T15:27:51;42.00;37.10
65072;DHT22;51663;52.310;17.016;2023-07-29T15:30:54;41.80;38.60
65072;DHT22;51663;52.310;17.016;2023-07-29T15:33:57;41.80;37.50
65072;DHT22;51663;52.310;17.016;2023-07-29T15:36:59;41.60;37.20
65072;DHT22;51663;52.310;17.016;2023-07-29T15:40:01;41.40;37.50
65072;DHT22;51663;52.310;17.016;2023-07-29T15:43:03;41.20;38.20
65072;DHT22;51663;52.310;17.016;2023-07-29T15:46:06;40.90;37.80
65072;DHT22;51663;52.310;17.016;2023-07-29T15:49:08;40.90;38.50
65072;DHT22;51663;52.310;17.016;2023-07-29T15:52:11;40.80;38.70
65072;DHT22;51663;52.310;17.016;2023-07-29T15:55:16;40.50;38.60
65072;DHT22;51663;52.310;17.016;2023-07-29T15:58:21;40.60;39.40
65072;DHT22;51663;52.310;17.016;2023-07-29T16:01:23;40.50;39.50
65072;DHT22;51663;52.310;17.016;2023-07-29T16:04:26;40.40;40.10
65072;DHT22;51663;52.310;17.016;2023-07-29T16:07:28;40.40;40.00
65072;DHT22;51663;52.310;17.016;2023-07-29T16:10:31;40.40;40.50
65072;DHT22;51663;52.310;17.016;2023-07-29T16:13:33;40.30;40.20
65072;DHT22;51663;52.310;17.016;2023-07-29T16:16:35;40.20;40.30
65072;DHT22;51663;52.310;17.016;2023-07-29T16:19:59;40.00;40.40
65072;DHT22;51663;52.310;17.016;2023-07-29T16:23:01;39.90;40.60
65072;DHT22;51663;52.310;17.016;2023-07-29T16:26:03;39.90;40.00
65072;DHT22;51663;52.310;17.016;2023-07-29T16:29:06;39.80;39.40
65072;DHT22;51663;52.310;17.016;2023-07-29T16:32:09;40.00;39.80
65072;DHT22;51663;52.310;17.016;2023-07-29T16:35:12;40.00;39.60
65072;DHT22;51663;52.310;17.016;2023-07-29T16:38:15;40.10;40.10
65072;DHT22;51663;52.310;17.016;2023-07-29T16:41:18;40.10;38.60
65072;DHT22;51663;52.310;17.016;2023-07-29T16:44:27;40.20;38.40
65072;DHT22;51663;52.310;17.016;2023-07-29T16:47:30;40.20;38.70
65072;DHT22;51663;52.310;17.016;2023-07-29T16:50:32;40.20;38.90
65072;DHT22;51663;52.310;17.016;2023-07-29T16:53:36;40.40;39.30
65072;DHT22;51663;52.310;17.016;2023-07-29T16:56:38;40.20;38.40
65072;DHT22;51663;52.310;17.016;2023-07-29T16:59:41;40.30;38.60
65072;DHT22;51663;52.310;17.016;2023-07-29T17:02:43;39.00;38.20
65072;DHT22;51663;52.310;17.016;2023-07-29T17:05:46;38.50;38.40
65072;DHT22;51663;52.310;17.016;2023-07-29T17:08:48;38.10;37.90
65072;DHT22;51663;52.310;17.016;2023-07-29T17:11:51;38.10;37.80
65072;DHT22;51663;52.310;17.016;2023-07-29T17:14:55;37.30;39.30
65072;DHT22;51663;52.310;17.016;2023-07-29T17:17:58;37.70;39.80
65072;DHT22;51663;52.310;17.016;2023-07-29T17:21:00;37.80;38.90
65072;DHT22;51663;52.310;17.016;2023-07-29T17:24:02;37.00;41.80
65072;DHT22;51663;52.310;17.016;2023-07-29T17:27:05;36.70;41.80
65072;DHT22;51663;52.310;17.016;2023-07-29T17:30:08;35.70;44.40
65072;DHT22;51663;52.310;17.016;2023-07-29T17:33:11;35.60;43.90
65072;DHT22;51663;52.310;17.016;2023-07-29T17:36:13;35.90;44.70
65072;DHT22;51663;52.310;17.016;2023-07-29T17:39:15;36.00;43.60
65072;DHT22;51663;52.310;17.016;2023-07-29T17:42:18;36.40;43.30
65072;DHT22;51663;52.310;17.016;2023-07-29T17:45:20;36.60;43.00
65072;DHT22;51663;52.310;17.016;2023-07-29T17:48:23;36.70;42.90
65072;DHT22;51663;52.310;17.016;2023-07-29T17:51:26;36.80;43.30
65072;DHT22;51663;52.310;17.016;2023-07-29T17:54:28;36.90;42.20
65072;DHT22;51663;52.310;17.016;2023-07-29T17:57:30;36.80;42.10
65072;DHT22;51663;52.310;17.016;2023-07-29T18:00:33;36.80;43.10
65072;DHT22;51663;52.310;17.016;2023-07-29T18:03:35;37.20;41.60
65072;DHT22;51663;52.310;17.016;2023-07-29T18:06:38;37.20;41.60
65072;DHT22;51663;52.310;17.016;2023-07-29T18:09:40;37.10;41.80
65072;DHT22;51663;52.310;17.016;2023-07-29T18:12:43;36.90;42.20
65072;DHT22;51663;52.310;17.016;2023-07-29T18:15:45;37.00;41.70
65072;DHT22;51663;52.310;17.016;2023-07-29T18:18:47;36.80;41.80
65072;DHT22;51663;52.310;17.016;2023-07-29T18:21:50;36.80;42.30
65072;DHT22;51663;52.310;17.016;2023-07-29T18:24:53;37.00;41.90
65072;DHT22;51663;52.310;17.016;2023-07-29T18:27:56;37.00;42.00
65072;DHT22;51663;52.310;17.016;2023-07-29T18:31:00;37.10;41.90
65072;DHT22;51663;52.310;17.016;2023-07-29T18:34:03;37.10;41.90
65072;DHT22;51663;52.310;17.016;2023-07-29T18:37:06;37.10;41.90
65072;DHT22;51663;52.310;17.016;2023-07-29T18:40:11;37.20;41.90
65072;DHT22;51663;52.310;17.016;2023-07-29T18:43:13;37.20;41.80
65072;DHT22;51663;52.310;17.016;2023-07-29T18:46:16;37.20;41.70
65072;DHT22;51663;52.310;17.016;2023-07-29T18:49:23;37.30;41.70
65072;DHT22;51663;52.310;17.016;2023-07-29T18:52:27;37.30;41.30
65072;DHT22;51663;52.310;17.016;2023-07-29T18:55:29;37.30;41.50
65072;DHT22;51663;52.310;17.016;2023-07-29T18:58:31;37.30;41.40
65072;DHT22;51663;52.310;17.016;2023-07-29T19:01:36;37.30;41.60
65072;DHT22;51663;52.310;17.016;2023-07-29T19:04:38;37.40;41.40
65072;DHT22;51663;52.310;17.016;2023-07-29T19:07:41;37.40;41.20
65072;DHT22;51663;52.310;17.016;2023-07-29T19:10:43;37.40;41.40
65072;DHT22;51663;52.310;17.016;2023-07-29T19:13:46;37.40;41.30
65072;DHT22;51663;52.310;17.016;2023-07-29T19:16:49;37.30;41.00
65072;DHT22;51663;52.310;17.016;2023-07-29T19:19:51;37.30;41.00